Terminal Aerodrome Forecast
Issued by NWS Springfield, MO

Home | Current Version | Previous Version | Text Only | Print | Product List | Glossary On
Versions: 1 2 3 4 5 6 7 8 9 10 11 12 13 14 15 16 17 18 19 20 21 22 23
024
FTUS43 KSGF 170248 AAC
TAFSGF
TAF AMD
KSGF 170248Z 1703/1724 VRB05KT P6SM VCTS SCT080CB BKN150
     FM170600 17006KT P6SM VCSH BKN080
     FM171800 16005KT P6SM BKN150
     FM172200 10005KT P6SM BKN150=

USA.gov is the U.S. government's official web portal to all federal, state and local government web resources and services.